Time;durP1;ratioP1;P1;durP2;ratioP2;P2;SDS_P1;SDS_P2;PMS_P1;PMS_P2;Temp;Humidity;BMP_temperature;BMP_pressure;BME280_temperature;BME280_humidity;BME280_pressure;Samples;Min_cycle;Max_cycle;Signal;HPM_P1;HPM_P2
2021/12/10 00:00:11;;;;;;;44.15;23.45;;;2.50;97.40;;;;;;4929731;28;20037;-66
2021/12/10 00:02:38;;;;;;;48.38;24.02;;;2.50;97.30;;;;;;4928444;28;20090;-66
2021/12/10 00:05:07;;;;;;;49.40;22.88;;;2.50;97.40;;;;;;4915936;28;20043;-66
2021/12/10 00:07:33;;;;;;;48.67;22.05;;;2.50;97.30;;;;;;4928504;28;20027;-66
2021/12/10 00:10:04;;;;;;;42.95;21.63;;;2.50;97.30;;;;;;4937243;28;20028;-67
2021/12/10 00:12:35;;;;;;;44.40;21.40;;;2.50;97.20;;;;;;4929539;28;20122;-66
2021/12/10 00:15:02;;;;;;;42.72;21.23;;;2.50;97.10;;;;;;4905333;28;20317;-66
2021/12/10 00:17:28;;;;;;;49.10;21.15;;;2.50;97.10;;;;;;4924581;28;20028;-66
2021/12/10 00:19:57;;;;;;;44.95;21.25;;;2.40;97.00;;;;;;4931253;28;20320;-66
2021/12/10 00:22:34;;;;;;;46.90;21.90;;;2.30;96.90;;;;;;4944379;28;20064;-66
2021/12/10 00:25:00;;;;;;;42.70;22.02;;;2.30;97.00;;;;;;4936416;28;20039;-67
2021/12/10 00:27:31;;;;;;;49.92;20.88;;;2.30;97.10;;;;;;4943514;28;20038;-66
2021/12/10 00:30:06;;;;;;;48.00;22.75;;;2.30;97.20;;;;;;4932994;28;20116;-66
2021/12/10 00:32:36;;;;;;;47.40;20.40;;;2.30;97.20;;;;;;4922299;28;20075;-66
2021/12/10 00:35:24;;;;;;;46.03;21.02;;;2.30;97.10;;;;;;4911648;28;20157;-67
2021/12/10 00:37:50;;;;;;;42.13;19.55;;;2.30;97.10;;;;;;4920038;28;20505;-67
2021/12/10 00:40:17;;;;;;;42.38;20.13;;;2.30;97.10;;;;;;4932677;28;20031;-66
2021/12/10 00:42:43;;;;;;;39.90;19.90;;;2.30;97.10;;;;;;4938079;28;20035;-67
2021/12/10 00:45:12;;;;;;;43.42;20.77;;;2.30;97.20;;;;;;4933185;28;20108;-67
2021/12/10 00:47:38;;;;;;;39.97;19.60;;;2.30;97.10;;;;;;4926942;28;20465;-67
2021/12/10 00:50:12;;;;;;;42.97;20.00;;;2.30;97.10;;;;;;4929925;28;20102;-66
2021/12/10 00:52:38;;;;;;;38.83;19.48;;;2.30;97.10;;;;;;4930902;28;20148;-65
2021/12/10 00:55:06;;;;;;;41.30;20.33;;;2.30;97.10;;;;;;4925591;28;20079;-66
2021/12/10 00:57:31;;;;;;;42.97;20.08;;;2.30;97.10;;;;;;4929024;28;20036;-67
2021/12/10 00:59:57;;;;;;;44.50;19.30;;;2.30;97.10;;;;;;4940553;28;20528;-66
2021/12/10 01:02:24;;;;;;;39.60;18.45;;;2.30;97.00;;;;;;4933710;28;20182;-66
2021/12/10 01:04:54;;;;;;;45.13;19.08;;;2.30;97.00;;;;;;4926479;28;20115;-66
2021/12/10 01:07:25;;;;;;;38.80;18.52;;;2.30;96.90;;;;;;4928142;28;20115;-66
2021/12/10 01:09:52;;;;;;;;;;;2.30;96.90;;;;;;4934304;28;20098;-67
2021/12/10 01:12:27;;;;;;;41.83;18.35;;;2.30;96.90;;;;;;4905936;29;19998;-66
2021/12/10 01:15:19;;;;;;;38.92;18.92;;;2.30;96.90;;;;;;4928111;28;20043;-66
2021/12/10 01:28:48;;;;;;;37.88;18.98;;;2.30;96.80;;;;;;4942914;28;20058;-67
2021/12/10 01:31:15;;;;;;;41.10;18.85;;;2.30;96.80;;;;;;4939795;28;20106;-66
2021/12/10 01:33:42;;;;;;;41.45;19.48;;;2.30;96.80;;;;;;4943429;28;20389;-66
2021/12/10 01:36:08;;;;;;;45.08;19.33;;;2.20;96.80;;;;;;4946308;28;20027;-67
2021/12/10 01:38:36;;;;;;;42.33;19.60;;;2.20;96.80;;;;;;4945475;28;20419;-66
2021/12/10 01:41:06;;;;;;;38.42;19.02;;;2.20;96.70;;;;;;4941420;28;20170;-66
2021/12/10 01:43:34;;;;;;;35.03;18.03;;;2.20;96.70;;;;;;4941036;28;20413;-67
2021/12/10 01:46:07;;;;;;;37.40;18.23;;;2.20;96.70;;;;;;4944426;28;20271;-66
2021/12/10 01:48:50;;;;;;;37.83;19.23;;;2.20;96.70;;;;;;4928023;29;20059;-66
2021/12/10 01:51:19;;;;;;;43.28;20.33;;;2.20;96.80;;;;;;4939874;28;20035;-66
2021/12/10 01:53:46;;;;;;;42.70;19.45;;;2.20;96.90;;;;;;4935713;28;20046;-66
2021/12/10 01:56:19;;;;;;;40.80;18.45;;;2.20;97.00;;;;;;4934952;28;20121;-66
2021/12/10 01:58:46;;;;;;;40.55;18.75;;;2.10;97.10;;;;;;4918364;29;20039;-66
2021/12/10 02:01:18;;;;;;;37.03;18.70;;;2.10;97.20;;;;;;4942687;28;20051;-67
2021/12/10 02:03:45;;;;;;;39.67;18.70;;;2.10;97.20;;;;;;4939561;28;20101;-66
2021/12/10 02:06:11;;;;;;;39.85;18.58;;;2.10;97.20;;;;;;4945228;28;20041;-67
2021/12/10 02:08:38;;;;;;;38.45;18.38;;;2.10;97.20;;;;;;4925413;29;20027;-66
2021/12/10 02:11:05;;;;;;;41.88;20.65;;;2.10;97.30;;;;;;4934676;28;20167;-67
2021/12/10 02:13:31;;;;;;;41.40;19.65;;;2.10;97.30;;;;;;4928778;28;20039;-66
2021/12/10 02:15:57;;;;;;;45.20;18.83;;;2.10;97.40;;;;;;4934384;28;20454;-66
2021/12/10 02:18:23;;;;;;;44.35;19.23;;;2.10;97.40;;;;;;4929870;28;20040;-66
2021/12/10 02:21:12;;;;;;;39.05;19.20;;;2.10;97.50;;;;;;4929929;28;20704;-66
2021/12/10 02:23:41;;;;;;;44.25;20.25;;;2.10;97.50;;;;;;4937298;28;20031;-67
2021/12/10 02:26:11;;;;;;;42.53;20.13;;;2.00;97.50;;;;;;4946870;28;20446;-66
2021/12/10 02:28:37;;;;;;;43.60;19.63;;;2.00;97.50;;;;;;4918183;28;20032;-66
2021/12/10 02:31:04;;;;;;;46.42;19.40;;;2.00;97.50;;;;;;4946780;28;20050;-66
2021/12/10 02:33:30;;;;;;;37.88;18.75;;;2.00;97.50;;;;;;4943855;28;20043;-67
2021/12/10 02:35:56;;;;;;;37.38;18.38;;;2.10;97.60;;;;;;4941778;28;20030;-66
2021/12/10 02:38:22;;;;;;;38.25;18.88;;;2.00;97.60;;;;;;4941772;28;20050;-66
2021/12/10 02:40:51;;;;;;;40.22;18.55;;;2.00;97.60;;;;;;4942252;28;20455;-66
2021/12/10 02:43:18;;;;;;;42.65;19.13;;;2.00;97.70;;;;;;4941421;28;20120;-67
2021/12/10 02:45:46;;;;;;;45.50;18.95;;;2.00;97.60;;;;;;4940833;28;20090;-66
2021/12/10 02:48:13;;;;;;;41.35;18.27;;;2.00;97.60;;;;;;4941531;28;20094;-66
2021/12/10 02:50:38;;;;;;;42.78;18.15;;;2.00;97.60;;;;;;4941991;28;20031;-66
2021/12/10 02:53:07;;;;;;;42.78;18.90;;;2.00;97.60;;;;;;4912665;29;20031;-67
2021/12/10 02:55:34;;;;;;;43.65;19.25;;;2.00;97.60;;;;;;4937505;28;20090;-66
2021/12/10 02:58:06;;;;;;;49.60;18.95;;;2.00;97.60;;;;;;4934440;29;20032;-66
2021/12/10 03:00:35;;;;;;;40.20;18.30;;;2.10;97.60;;;;;;4931824;28;20043;-67
2021/12/10 03:03:01;;;;;;;43.92;17.90;;;2.10;97.60;;;;;;4943922;28;20023;-66
2021/12/10 03:05:26;;;;;;;45.13;18.60;;;2.10;97.60;;;;;;4950812;28;20114;-66
2021/12/10 03:07:52;;;;;;;38.20;19.05;;;2.00;97.60;;;;;;4940365;28;20400;-67
2021/12/10 03:10:26;;;;;;;38.90;17.85;;;2.00;97.60;;;;;;4933544;28;20147;-66
2021/12/10 03:12:52;;;;;;;40.58;19.00;;;2.00;97.60;;;;;;4919568;28;20035;-66
2021/12/10 03:15:21;;;;;;;36.45;18.02;;;2.00;97.60;;;;;;4904722;29;20478;-66
2021/12/10 03:17:47;;;;;;;37.33;18.02;;;2.00;97.60;;;;;;4932412;28;20034;-66
2021/12/10 03:20:16;;;;;;;39.53;17.50;;;2.00;97.60;;;;;;4929837;28;20023;-67
2021/12/10 03:22:41;;;;;;;41.97;18.35;;;2.00;97.60;;;;;;4927617;28;20027;-66
2021/12/10 03:25:12;;;;;;;40.08;18.13;;;2.00;97.50;;;;;;4927969;28;20042;-66
2021/12/10 03:27:38;;;;;;;38.90;17.42;;;2.00;97.50;;;;;;4942832;28;20023;-66
2021/12/10 03:30:09;;;;;;;42.65;18.25;;;2.00;97.50;;;;;;4939298;29;20475;-66
2021/12/10 03:32:36;;;;;;;41.63;19.05;;;2.00;97.40;;;;;;4942104;28;20106;-66
2021/12/10 03:35:08;;;;;;;33.97;17.45;;;2.00;97.50;;;;;;4934035;28;20028;-66
2021/12/10 03:37:35;;;;;;;34.05;17.05;;;2.00;97.40;;;;;;4944273;28;20024;-66
2021/12/10 03:40:00;;;;;;;34.40;17.15;;;2.00;97.40;;;;;;4958994;28;20042;-65
2021/12/10 03:42:26;;;;;;;36.05;17.98;;;2.00;97.40;;;;;;4942797;29;20051;-67
2021/12/10 03:44:51;;;;;;;39.50;18.60;;;2.00;97.40;;;;;;4952397;28;20307;-67
2021/12/10 03:47:17;;;;;;;37.70;17.40;;;2.00;97.40;;;;;;4944979;28;20027;-66
2021/12/10 03:49:43;;;;;;;35.38;17.02;;;2.00;97.40;;;;;;4941202;28;20110;-66
2021/12/10 03:52:09;;;;;;;45.17;17.52;;;2.00;97.40;;;;;;4943756;28;20030;-66
2021/12/10 03:54:40;;;;;;;37.60;18.50;;;2.00;97.40;;;;;;4943157;28;20023;-67
2021/12/10 03:57:07;;;;;;;30.73;16.58;;;2.00;97.40;;;;;;4923698;28;20114;-67
2021/12/10 03:59:36;;;;;;;35.28;16.90;;;2.00;97.40;;;;;;4943190;28;20024;-66
2021/12/10 04:02:05;;;;;;;33.28;17.02;;;2.00;97.50;;;;;;4941109;28;20055;-67
2021/12/10 04:04:37;;;;;;;37.95;17.02;;;2.00;97.40;;;;;;4942358;28;20089;-67
2021/12/10 04:07:08;;;;;;;33.22;17.45;;;2.00;97.40;;;;;;4944094;28;20055;-67
2021/12/10 04:09:34;;;;;;;;;;;2.00;97.40;;;;;;4923586;29;20023;-67
2021/12/10 04:11:59;;;;;;;33.05;15.88;;;1.90;97.30;;;;;;4923565;29;19990;-67
2021/12/10 04:14:26;;;;;;;32.30;16.20;;;1.90;97.30;;;;;;4926500;29;20099;-67
2021/12/10 04:16:56;;;;;;;33.72;16.20;;;2.00;97.30;;;;;;4929369;29;20026;-67
2021/12/10 04:19:28;;;;;;;41.47;17.02;;;1.90;97.30;;;;;;4942685;28;20103;-68
2021/12/10 04:21:56;;;;;;;31.02;15.55;;;1.90;97.30;;;;;;4934379;28;20032;-66
2021/12/10 04:24:26;;;;;;;34.85;15.48;;;1.90;97.30;;;;;;4922136;29;20024;-67
2021/12/10 04:26:52;;;;;;;28.60;15.38;;;2.00;97.30;;;;;;4943832;28;20506;-66
2021/12/10 04:29:20;;;;;;;31.55;16.23;;;1.90;97.40;;;;;;4944418;28;20035;-67
2021/12/10 04:31:49;;;;;;;27.60;15.00;;;1.90;97.40;;;;;;4942127;28;20228;-67
2021/12/10 04:34:15;;;;;;;36.17;15.50;;;1.90;97.50;;;;;;4938812;28;20027;-67
2021/12/10 04:36:41;;;;;;;29.27;15.90;;;1.90;97.60;;;;;;4913413;29;20046;-67
2021/12/10 04:39:07;;;;;;;33.28;16.55;;;1.90;97.70;;;;;;4936501;28;20166;-67
2021/12/10 04:41:33;;;;;;;32.35;15.55;;;1.90;97.80;;;;;;4935514;28;20078;-65
2021/12/10 04:43:58;;;;;;;36.05;16.50;;;1.90;97.80;;;;;;4940684;28;20435;-66
2021/12/10 04:46:24;;;;;;;32.28;16.23;;;1.90;97.90;;;;;;4936540;28;20084;-66
2021/12/10 04:48:59;;;;;;;33.63;16.17;;;1.90;98.00;;;;;;4939703;28;20381;-67
2021/12/10 04:51:29;;;;;;;33.10;16.02;;;1.80;98.10;;;;;;4932053;28;20068;-66
2021/12/10 04:53:57;;;;;;;33.72;15.63;;;1.90;98.20;;;;;;4936881;28;20406;-67
2021/12/10 04:56:23;;;;;;;33.70;15.55;;;1.80;98.30;;;;;;4950927;28;20023;-67
2021/12/10 04:58:49;;;;;;;37.85;17.05;;;1.80;98.30;;;;;;4941062;28;20023;-67
2021/12/10 05:01:16;;;;;;;32.40;16.52;;;1.80;98.40;;;;;;4932262;28;20103;-67
2021/12/10 05:03:42;;;;;;;38.40;17.20;;;1.80;98.50;;;;;;4925836;28;20035;-66
2021/12/10 05:06:07;;;;;;;39.50;17.40;;;1.80;98.60;;;;;;4927153;28;20042;-65
2021/12/10 05:08:35;;;;;;;36.45;16.90;;;1.80;98.60;;;;;;4902027;29;20064;-67
2021/12/10 05:11:04;;;;;;;44.25;16.83;;;1.70;98.70;;;;;;4922830;28;20156;-65
2021/12/10 05:13:30;;;;;;;37.80;18.02;;;1.70;98.70;;;;;;4925279;28;20034;-67
2021/12/10 05:15:58;;;;;;;34.90;17.23;;;1.70;98.80;;;;;;4936448;28;20031;-66
2021/12/10 05:18:26;;;;;;;35.25;18.45;;;1.70;98.80;;;;;;4927898;28;20455;-67
2021/12/10 05:20:53;;;;;;;42.92;17.27;;;1.70;98.80;;;;;;4924501;28;20062;-64
2021/12/10 05:23:19;;;;;;;35.75;17.13;;;1.70;98.80;;;;;;4930869;28;20182;-65
2021/12/10 05:25:45;;;;;;;42.35;18.02;;;1.70;98.90;;;;;;4928192;28;20426;-65
2021/12/10 05:28:12;;;;;;;37.72;18.25;;;1.70;98.90;;;;;;4929790;28;20020;-65
2021/12/10 05:30:38;;;;;;;42.83;17.95;;;1.70;98.90;;;;;;4932074;28;20103;-65
2021/12/10 05:33:04;;;;;;;38.92;17.90;;;1.70;98.90;;;;;;4925516;28;20672;-66
2021/12/10 05:35:31;;;;;;;41.45;17.45;;;1.70;98.90;;;;;;4929138;28;20050;-65
2021/12/10 05:37:58;;;;;;;35.22;17.42;;;1.70;99.00;;;;;;4914131;28;20043;-65
2021/12/10 05:40:24;;;;;;;37.08;16.85;;;1.70;99.00;;;;;;4938013;28;20023;-65
2021/12/10 05:42:50;;;;;;;39.47;17.08;;;1.70;99.00;;;;;;4938003;28;20023;-66
2021/12/10 05:45:17;;;;;;;38.85;16.65;;;1.60;99.00;;;;;;4942369;28;20201;-66
2021/12/10 05:47:43;;;;;;;33.70;17.33;;;1.60;99.00;;;;;;4944563;28;20078;-66
2021/12/10 05:50:11;;;;;;;41.45;17.08;;;1.60;99.00;;;;;;4923588;29;20027;-66
2021/12/10 05:52:37;;;;;;;38.40;17.27;;;1.60;99.00;;;;;;4920527;28;20047;-65
2021/12/10 05:55:04;;;;;;;37.13;17.08;;;1.60;99.00;;;;;;4941924;28;20110;-65
2021/12/10 05:57:29;;;;;;;37.58;16.75;;;1.60;99.10;;;;;;4938699;28;20043;-65
2021/12/10 05:59:55;;;;;;;40.03;17.10;;;1.50;99.10;;;;;;4939047;28;20069;-65
2021/12/10 06:02:20;;;;;;;43.38;17.58;;;1.60;99.10;;;;;;4940069;28;20047;-66
2021/12/10 06:04:46;;;;;;;39.72;16.90;;;1.50;99.10;;;;;;4951155;28;20035;-66
2021/12/10 06:07:12;;;;;;;34.58;16.50;;;1.50;99.10;;;;;;4938815;28;20527;-66
2021/12/10 06:09:37;;;;;;;32.97;17.17;;;1.50;99.10;;;;;;4935548;28;20035;-66
2021/12/10 06:12:04;;;;;;;36.20;17.08;;;1.50;99.10;;;;;;4930670;28;20127;-66
2021/12/10 06:14:30;;;;;;;35.92;17.15;;;1.50;99.10;;;;;;4936658;28;20058;-65
2021/12/10 06:16:56;;;;;;;46.05;17.95;;;1.50;99.10;;;;;;4949402;28;20542;-67
2021/12/10 06:19:23;;;;;;;38.28;16.48;;;1.50;99.10;;;;;;4933377;28;20122;-67
2021/12/10 06:21:49;;;;;;;34.72;16.40;;;1.40;99.00;;;;;;4935338;28;20036;-66
2021/12/10 06:24:15;;;;;;;40.97;17.67;;;1.50;99.10;;;;;;4929639;29;20094;-66
2021/12/10 06:26:41;;;;;;;34.55;17.83;;;1.40;99.10;;;;;;4942759;28;20466;-66
2021/12/10 06:29:07;;;;;;;38.08;17.15;;;1.40;99.10;;;;;;4946327;28;20042;-66
2021/12/10 06:31:33;;;;;;;43.30;16.50;;;1.40;99.10;;;;;;4933279;29;20035;-65
2021/12/10 06:34:00;;;;;;;33.25;16.70;;;1.40;99.10;;;;;;4937340;28;20031;-65
2021/12/10 06:36:27;;;;;;;34.15;17.40;;;1.40;99.10;;;;;;4929154;29;20816;-67
2021/12/10 06:38:53;;;;;;;32.20;15.55;;;1.40;99.10;;;;;;4955084;28;20046;-67
2021/12/10 06:41:19;;;;;;;33.72;16.55;;;1.40;99.10;;;;;;4942028;28;20143;-67
2021/12/10 06:43:45;;;;;;;35.30;15.52;;;1.40;99.10;;;;;;4944941;28;20110;-66
2021/12/10 06:46:11;;;;;;;36.63;14.82;;;1.40;99.00;;;;;;4945775;28;20035;-67
2021/12/10 06:48:38;;;;;;;41.35;17.20;;;1.40;99.00;;;;;;4941662;28;20107;-66
2021/12/10 06:51:11;;;;;;;31.90;15.73;;;1.50;99.00;;;;;;4944879;28;20066;-66
2021/12/10 06:53:39;;;;;;;28.83;14.90;;;1.50;99.10;;;;;;4943444;28;20460;-67
2021/12/10 06:56:06;;;;;;;36.00;16.85;;;1.50;99.10;;;;;;4944618;28;20027;-66
2021/12/10 06:58:33;;;;;;;30.88;15.77;;;1.50;99.10;;;;;;4945510;28;20483;-67
2021/12/10 07:01:06;;;;;;;37.25;16.63;;;1.50;99.00;;;;;;4944916;29;20086;-67
2021/12/10 07:03:34;;;;;;;35.58;16.83;;;1.50;99.00;;;;;;4943807;28;20035;-67
2021/12/10 07:06:00;;;;;;;38.67;17.42;;;1.40;99.00;;;;;;4943238;28;20032;-66
2021/12/10 07:08:28;;;;;;;38.63;17.05;;;1.50;99.00;;;;;;4948812;28;20347;-67
2021/12/10 07:10:57;;;;;;;32.17;16.95;;;1.50;99.00;;;;;;4937979;28;20090;-67
2021/12/10 07:13:23;;;;;;;37.33;15.95;;;1.50;99.00;;;;;;4943856;28;20075;-66
2021/12/10 07:15:50;;;;;;;34.22;16.48;;;1.50;99.00;;;;;;4953862;28;20230;-66
2021/12/10 07:18:18;;;;;;;35.60;16.60;;;1.50;99.00;;;;;;4945158;28;20110;-67
2021/12/10 07:20:46;;;;;;;32.45;16.65;;;1.50;99.00;;;;;;4939982;28;20106;-67
2021/12/10 07:23:11;;;;;;;40.67;17.05;;;1.60;99.00;;;;;;4943628;28;20424;-66
2021/12/10 07:25:37;;;;;;;29.98;16.05;;;1.50;99.00;;;;;;4945990;28;20110;-66
2021/12/10 07:28:03;;;;;;;33.10;15.63;;;1.60;99.00;;;;;;4944847;28;20050;-66
2021/12/10 07:30:29;;;;;;;29.92;15.88;;;1.50;99.00;;;;;;4950704;28;20398;-66
2021/12/10 07:32:54;;;;;;;30.85;16.48;;;1.60;99.00;;;;;;4941833;28;20023;-67
2021/12/10 07:35:20;;;;;;;33.20;15.50;;;1.60;99.00;;;;;;4940632;28;20035;-66
2021/12/10 07:37:47;;;;;;;32.55;14.48;;;1.60;99.00;;;;;;4940986;28;20366;-66
2021/12/10 07:40:17;;;;;;;35.42;15.73;;;1.50;98.90;;;;;;4941175;28;20051;-67
2021/12/10 07:42:43;;;;;;;33.03;14.88;;;1.50;99.00;;;;;;4939153;29;20048;-67
2021/12/10 07:45:10;;;;;;;33.00;15.20;;;1.50;99.00;;;;;;4944826;28;20398;-66
2021/12/10 07:47:37;;;;;;;33.03;14.95;;;1.50;98.90;;;;;;4938756;28;20501;-67
2021/12/10 07:50:10;;;;;;;31.90;15.63;;;1.60;99.00;;;;;;4950687;28;20030;-67
2021/12/10 07:52:36;;;;;;;38.10;15.63;;;1.60;98.90;;;;;;4938926;28;20111;-67
2021/12/10 07:55:07;;;;;;;30.73;15.10;;;1.60;98.90;;;;;;4937913;28;20460;-67
2021/12/10 07:57:32;;;;;;;31.65;15.20;;;1.60;98.90;;;;;;4932376;29;20031;-67
2021/12/10 07:59:58;;;;;;;35.03;14.80;;;1.60;98.90;;;;;;4941922;29;20031;-66
2021/12/10 08:02:24;;;;;;;32.65;15.50;;;1.60;98.90;;;;;;4941530;28;20027;-66
2021/12/10 08:04:49;;;;;;;40.05;17.15;;;1.60;98.80;;;;;;4939299;28;20066;-66
2021/12/10 08:07:15;;;;;;;32.28;16.58;;;1.60;98.80;;;;;;4944013;28;20050;-67
2021/12/10 08:09:42;;;;;;;30.80;16.58;;;1.60;98.70;;;;;;4934506;28;20121;-66
2021/12/10 08:12:08;;;;;;;32.95;15.93;;;1.60;98.70;;;;;;4942438;28;20035;-67
2021/12/10 08:14:33;;;;;;;34.10;15.23;;;1.60;98.70;;;;;;4931165;29;20028;-67
2021/12/10 08:16:59;;;;;;;32.15;15.18;;;1.70;98.60;;;;;;4943703;28;20035;-66
2021/12/10 08:19:25;;;;;;;33.47;15.60;;;1.60;98.60;;;;;;4938825;28;20022;-67
2021/12/10 08:21:51;;;;;;;29.48;16.65;;;1.70;98.60;;;;;;4942532;28;20141;-66
2021/12/10 08:24:16;;;;;;;28.52;14.20;;;1.70;98.50;;;;;;4941613;28;20114;-66
2021/12/10 08:26:42;;;;;;;29.88;15.27;;;1.70;98.50;;;;;;4943210;28;20066;-67
2021/12/10 08:29:09;;;;;;;39.00;15.80;;;1.80;98.50;;;;;;4944243;28;20501;-67
2021/12/10 08:31:36;;;;;;;29.73;14.48;;;1.80;98.50;;;;;;4945950;28;20510;-66
2021/12/10 08:34:02;;;;;;;28.88;14.90;;;1.80;98.50;;;;;;4942187;28;20049;-67
2021/12/10 08:36:29;;;;;;;34.70;15.38;;;1.80;98.50;;;;;;4885185;28;20124;-67
2021/12/10 08:38:55;;;;;;;26.17;14.00;;;1.80;98.40;;;;;;4934553;28;20455;-67
2021/12/10 08:41:24;;;;;;;28.10;14.23;;;1.90;98.40;;;;;;4941647;28;20034;-67
2021/12/10 08:43:51;;;;;;;32.50;15.32;;;1.90;98.40;;;;;;4938295;28;20071;-67
2021/12/10 08:46:18;;;;;;;29.70;15.35;;;1.90;98.40;;;;;;4930301;28;20145;-66
2021/12/10 08:48:44;;;;;;;25.52;14.52;;;1.90;98.30;;;;;;4942592;28;20054;-67
2021/12/10 08:51:14;;;;;;;30.88;14.15;;;2.00;98.40;;;;;;4952802;28;20026;-67
2021/12/10 08:53:40;;;;;;;30.95;15.15;;;2.00;98.20;;;;;;4945164;28;20179;-67
2021/12/10 08:56:06;;;;;;;32.55;14.80;;;2.00;98.20;;;;;;4941891;28;20051;-67
2021/12/10 08:58:32;;;;;;;30.83;14.23;;;2.00;98.20;;;;;;4942313;28;20094;-67
2021/12/10 09:01:04;;;;;;;27.52;14.30;;;2.10;98.20;;;;;;4925048;29;20027;-66
2021/12/10 09:03:29;;;;;;;29.30;15.07;;;2.00;98.00;;;;;;4938264;28;20351;-66
2021/12/10 09:05:55;;;;;;;28.58;14.48;;;2.10;98.00;;;;;;4938154;28;20046;-66
2021/12/10 09:08:21;;;;;;;29.15;14.63;;;2.10;97.90;;;;;;4940640;28;20034;-68
2021/12/10 09:10:48;;;;;;;27.88;14.23;;;2.10;97.80;;;;;;4940316;28;20066;-67
2021/12/10 09:13:15;;;;;;;27.40;15.45;;;2.10;97.70;;;;;;4947851;28;20444;-65
2021/12/10 09:15:44;;;;;;;28.77;14.27;;;2.10;97.70;;;;;;4940806;28;20517;-67
2021/12/10 09:18:10;;;;;;;31.40;13.80;;;2.10;97.40;;;;;;4928592;29;21001;-66
2021/12/10 09:20:40;;;;;;;31.25;14.85;;;2.10;97.50;;;;;;4942049;28;20045;-66
2021/12/10 09:23:08;;;;;;;33.17;14.95;;;2.10;97.30;;;;;;4941178;28;20031;-67
2021/12/10 09:25:35;;;;;;;23.73;12.63;;;2.10;97.30;;;;;;4940301;28;20482;-66
2021/12/10 09:28:01;;;;;;;31.27;14.30;;;2.20;97.20;;;;;;4942403;29;20074;-67
2021/12/10 09:30:29;;;;;;;33.38;15.63;;;2.30;97.30;;;;;;4939534;28;20080;-67
2021/12/10 09:32:55;;;;;;;30.45;13.82;;;2.40;97.10;;;;;;4951193;28;20103;-66
2021/12/10 09:35:23;;;;;;;27.77;15.23;;;2.40;97.10;;;;;;4941856;28;20122;-66
2021/12/10 09:37:49;;;;;;;27.45;15.02;;;2.30;96.60;;;;;;4940576;28;20545;-67
2021/12/10 09:40:21;;;;;;;25.77;14.07;;;2.40;96.90;;;;;;4939168;28;20075;-65
2021/12/10 09:42:47;;;;;;;27.65;13.93;;;2.40;96.60;;;;;;4947917;28;20043;-67
2021/12/10 09:45:18;;;;;;;25.70;14.40;;;2.40;96.60;;;;;;4942021;28;20039;-66
2021/12/10 09:47:43;;;;;;;26.83;14.27;;;2.40;96.40;;;;;;4938796;28;20493;-67
2021/12/10 09:50:10;;;;;;;32.55;15.35;;;2.60;96.70;;;;;;4923403;29;20027;-66
2021/12/10 09:52:38;;;;;;;31.42;15.30;;;2.50;96.40;;;;;;4927651;28;20059;-67
2021/12/10 09:55:06;;;;;;;30.27;15.23;;;2.70;96.70;;;;;;4942205;28;20156;-66
2021/12/10 09:57:34;;;;;;;29.83;14.20;;;2.70;96.60;;;;;;4945252;28;20095;-66
2021/12/10 10:00:11;;;;;;;29.55;14.50;;;2.80;96.10;;;;;;4945500;28;20045;-66
2021/12/10 10:02:38;;;;;;;26.15;14.88;;;2.90;96.00;;;;;;4940637;28;20027;-67
2021/12/10 10:05:05;;;;;;;29.48;14.55;;;3.10;95.80;;;;;;4941589;28;20317;-67
2021/12/10 10:07:31;;;;;;;30.45;15.15;;;3.10;95.50;;;;;;4944827;28;20075;-67
2021/12/10 10:10:04;;;;;;;28.27;14.00;;;3.20;94.90;;;;;;4950237;28;20027;-66
2021/12/10 10:12:33;;;;;;;28.10;14.10;;;3.20;94.30;;;;;;4943211;28;20481;-66
2021/12/10 10:15:01;;;;;;;26.15;13.63;;;3.30;94.30;;;;;;4946618;28;20043;-66
2021/12/10 10:17:27;;;;;;;29.42;14.20;;;3.20;94.00;;;;;;4939441;28;20471;-67
2021/12/10 10:19:54;;;;;;;28.95;13.77;;;3.30;93.90;;;;;;4944709;28;20048;-67
2021/12/10 10:22:24;;;;;;;27.40;14.40;;;3.10;93.40;;;;;;4944032;28;20042;-67
2021/12/10 10:24:51;;;;;;;29.85;14.75;;;3.10;93.50;;;;;;4950799;28;20094;-67
2021/12/10 10:27:21;;;;;;;27.92;13.35;;;3.10;93.30;;;;;;4942097;28;20098;-67
2021/12/10 10:29:53;;;;;;;26.55;12.57;;;3.10;93.30;;;;;;4945542;28;20113;-66
2021/12/10 10:32:23;;;;;;;24.10;13.15;;;3.10;93.20;;;;;;4943703;28;20039;-67
2021/12/10 10:35:04;;;;;;;29.27;13.88;;;3.10;93.10;;;;;;4947697;28;20402;-68
2021/12/10 10:37:31;;;;;;;;;;;3.20;92.80;;;;;;4945231;28;20027;-66
2021/12/10 10:39:57;;;;;;;24.17;13.88;;;3.20;92.40;;;;;;4946878;28;19937;-66
2021/12/10 10:42:26;;;;;;;26.02;13.25;;;3.20;92.50;;;;;;4944302;28;20482;-67
2021/12/10 10:44:53;;;;;;;27.67;13.23;;;3.20;92.20;;;;;;4944470;28;20094;-67
2021/12/10 10:47:22;;;;;;;27.58;13.65;;;3.30;92.20;;;;;;4947190;28;20031;-68
2021/12/10 10:49:52;;;;;;;20.83;11.70;;;3.40;92.30;;;;;;4934930;28;20024;-65
2021/12/10 10:52:33;;;;;;;24.08;12.88;;;3.20;91.20;;;;;;4936962;28;20433;-66
2021/12/10 10:55:10;;;;;;;24.13;12.80;;;3.30;91.70;;;;;;4941857;28;20177;-67
2021/12/10 10:57:35;;;;;;;20.70;11.18;;;3.10;91.60;;;;;;4938956;28;20042;-67
2021/12/10 11:00:15;;;;;;;21.80;11.48;;;3.00;91.90;;;;;;4941228;28;20046;-67
2021/12/10 11:02:58;;;;;;;22.65;11.35;;;3.10;92.00;;;;;;4950952;28;20442;-67
2021/12/10 11:05:24;;;;;;;24.83;12.25;;;3.30;91.90;;;;;;4939122;28;20039;-67
2021/12/10 11:07:54;;;;;;;21.30;10.70;;;3.30;91.40;;;;;;4942910;28;20027;-67
2021/12/10 11:10:40;;;;;;;19.17;10.30;;;3.60;91.50;;;;;;4942628;28;20459;-67
2021/12/10 11:13:10;;;;;;;23.25;10.30;;;3.70;89.90;;;;;;4944700;28;20038;-67
2021/12/10 11:15:38;;;;;;;18.45;9.50;;;3.80;89.70;;;;;;4942968;28;21529;-67
2021/12/10 11:18:04;;;;;;;16.65;9.57;;;4.00;90.20;;;;;;4949560;28;20112;-65
2021/12/10 11:20:35;;;;;;;15.80;7.63;;;4.10;90.10;;;;;;4939393;28;20043;-64
2021/12/10 11:23:05;;;;;;;21.23;8.77;;;4.20;88.90;;;;;;4943702;28;20042;-65
2021/12/10 11:25:38;;;;;;;14.00;7.47;;;4.30;88.50;;;;;;4938045;28;20076;-66
2021/12/10 11:28:10;;;;;;;15.55;8.23;;;4.20;86.90;;;;;;4941522;28;20122;-65
2021/12/10 11:30:40;;;;;;;14.57;8.23;;;4.30;87.30;;;;;;4944290;29;20374;-65
2021/12/10 11:33:09;;;;;;;13.40;6.93;;;4.40;87.50;;;;;;4944678;28;20027;-65
2021/12/10 11:35:43;;;;;;;20.08;7.32;;;4.40;87.50;;;;;;4938283;29;20039;-65
2021/12/10 11:38:14;;;;;;;15.93;7.43;;;4.20;87.50;;;;;;4933271;28;20185;-65
2021/12/10 11:41:00;;;;;;;15.75;6.88;;;4.20;87.60;;;;;;4953765;28;20061;-65
2021/12/10 11:48:47;;;;;;;12.45;6.90;;;4.10;87.80;;;;;;4943982;28;20031;-66
2021/12/10 11:51:39;;;;;;;12.88;6.95;;;4.10;87.80;;;;;;4921823;29;20335;-66
2021/12/10 11:54:27;;;;;;;12.70;6.72;;;4.20;88.00;;;;;;4938569;29;20562;-65
2021/12/10 11:56:52;;;;;;;16.52;7.22;;;4.10;87.00;;;;;;4939833;29;20367;-65
2021/12/10 11:59:22;;;;;;;18.35;9.60;;;4.20;87.90;;;;;;4946967;28;20027;-65
2021/12/10 12:01:55;;;;;;;14.07;6.07;;;4.20;87.50;;;;;;4947753;28;20451;-65
2021/12/10 12:04:41;;;;;;;12.95;6.78;;;4.20;87.40;;;;;;4937842;28;20046;-66
2021/12/10 12:07:22;;;;;;;15.38;6.45;;;4.10;88.00;;;;;;4920763;29;20039;-66
2021/12/10 12:09:55;;;;;;;14.30;6.22;;;4.20;88.40;;;;;;4941015;28;20372;-66
2021/12/10 12:12:30;;;;;;;13.50;6.57;;;4.10;87.40;;;;;;4941402;28;20056;-65
2021/12/10 12:15:11;;;;;;;14.18;6.25;;;4.10;88.00;;;;;;4943185;28;20110;-65
2021/12/10 12:17:53;;;;;;;;;;;4.20;88.60;;;;;;4939857;28;20049;-65
2021/12/10 12:20:23;;;;;;;14.48;6.28;;;4.20;88.50;;;;;;4939480;28;19910;-64
2021/12/10 12:25:41;;;;;;;12.48;6.28;;;4.20;88.50;;;;;;4938853;28;20058;-66
2021/12/10 12:28:11;;;;;;;12.32;6.10;;;4.20;88.80;;;;;;4941508;29;20031;-66
2021/12/10 12:30:56;;;;;;;13.52;6.30;;;4.10;86.80;;;;;;4944928;28;20034;-65
2021/12/10 12:33:24;;;;;;;14.93;6.93;;;4.10;86.80;;;;;;4938186;28;20038;-66
2021/12/10 12:35:52;;;;;;;11.90;5.82;;;4.10;87.20;;;;;;4953397;28;20030;-65
2021/12/10 12:38:30;;;;;;;14.02;6.68;;;4.00;87.00;;;;;;4939905;28;20051;-65
2021/12/10 12:41:11;;;;;;;13.40;5.80;;;4.00;87.20;;;;;;4929026;28;20063;-65
2021/12/10 12:43:38;;;;;;;12.75;6.13;;;3.90;87.10;;;;;;4944809;28;20016;-65
2021/12/10 12:46:10;;;;;;;16.88;6.63;;;3.90;86.80;;;;;;4925776;29;20042;-65
2021/12/10 12:48:51;;;;;;;13.27;6.15;;;3.90;86.90;;;;;;4932808;28;20043;-65
2021/12/10 12:51:20;;;;;;;12.02;5.60;;;3.90;87.30;;;;;;4938633;28;20497;-66
2021/12/10 12:53:47;;;;;;;12.85;5.93;;;3.90;87.30;;;;;;4941244;28;20035;-66
2021/12/10 12:56:14;;;;;;;19.05;8.82;;;3.80;86.20;;;;;;4947190;28;20046;-66
2021/12/10 12:59:02;;;;;;;17.45;5.78;;;3.80;87.00;;;;;;4945738;28;20027;-66
2021/12/10 13:01:41;;;;;;;12.63;5.43;;;3.80;87.00;;;;;;4942066;28;20020;-65
2021/12/10 13:04:14;;;;;;;16.00;5.47;;;3.80;87.40;;;;;;4947361;28;20736;-65
2021/12/10 13:06:57;;;;;;;14.15;5.97;;;3.80;87.50;;;;;;4933648;28;20405;-66